Lansing, MI (48919)

9:04 AM EST on November 24, 2014 (GMT -0500)
Shaw Estates | Change Station
CLOSE
Current Station
Personal Weather Station
Location: East Lansing, MI
Elevation: 869 ft
Nearby Weather Stations

Elev 869 ft 42.73 °N, 84.54 °W | Updated 2 minutes ago

Rain
Rain
52.0 °F
Feels Like 52.0 °F
N
4.0
Wind Variable Wind from South
Gusts 8.0 mph

Today
High -- | Low -- °F
--% Chance of Precip.
Yesterday
High -- | Low -- °F
Precip. -- in
7:40 AM 5:08 PM
Waxing Crescent, 5% visible
Pressure 29.09 in
Visibility 5.0 miles
Clouds Mostly Cloudy 800 ft
Mostly Cloudy 1500 ft
Overcast 4500 ft
Dew Point 50 °F
Humidity 95%
Rainfall 0.78 in
Snow Depth Not available.
UV 0 out of 12
Pollen .10 out of 12
Air Quality Not available.
Flu Activity Not available.
SPECI KLAN 241401Z 21008KT 5SM -RA BR BKN008 BKN015 OVC045 11/09 A2909 RMK AO2 P0001 T01060094

More Conditions Fewer Conditions

Pressure 29.09 in
Visibility 5.0 miles
Clouds Mostly Cloudy 800 ft
Mostly Cloudy 1500 ft
Overcast 4500 ft
Dew Point 50 °F
Humidity 95%
Rainfall 0.78 in
Snow Depth Not available.
UV 0 out of 12
Pollen .10 out of 12
Air Quality Not available.
Flu Activity Not available.
SPECI KLAN 241401Z 21008KT 5SM -RA BR BKN008 BKN015 OVC045 11/09 A2909 RMK AO2 P0001 T01060094

More Conditions Fewer Conditions

10-Day Weather Forecast

Almanac

Astronomy

Nov. 24, 2014 Rise Set
Actual Time
Civil Twilight
Nautical Twilight
Astronomical Twilight
Moon
Length of Visible Light
Length of Day
Tomorrow will be .
, % of the Moon is Illuminated

Today's Extremes

State Highs State Lows

Community

WunderPhotos

Upload Photos

1,773,332 photos uploaded!

WunderBlogs® & News

Nearby

Air Quality

  Air Quality AQ Index Pollutant
Not available.

Snow Depth

Station Depth Elevation

Earthquake Activity

City Distance Mag. Time & Date
Minimum magnitude displayed is 2.5.

Coastal Water Temperatures

Place Temperature

Nearby Weather Stations